LFBHLFRS

Guest
Details From LFBH - La Rochelle Laleu
To LFRS - Nantes Atlantique
Flight Number -
Tags Generated
Created
Modified
Stats Distance 61 nm / 113 km
Max Altitude 0 ft / 0 m
Waypoints 2
Social Downloads 3
Likes 0
Share VATSIM

Download

Looking for another format? Having issues loading an existing format? Contact us
Advertisement - Login to hide

Notes

Generated

Route

LFBH LFRS

ID Type Via Altitude Latitude Longitude Leg Dist Tot Dist Heading (true) Name
O LFBH APT - 0 ft / 0 m 46.17968˚ -1.21101˚ - 0 nm - -
O LFRS APT - 0 ft / 0 m 47.16048˚ -1.61493˚ 61 nm 61 nm 344° / 344° Nantes_Atlantique

Altitude Profile

Advertisement - Login to hide

LFBH

Details ICAO LFBH (LRH)
Name La Rochelle Laleu
Region France
Timezone Europe/Paris (UTC+1.0)
Stats Elevation 74 ft / 23 m (AMSL)
Location 46.179245° -1.196410°
Runways 1
Magnetic Variation 0.302° W

METAR

LFBH 131100Z AUTO 24014KT CAVOK 12/09 Q1013 TEMPO 25025G45KT 2500 RA OVC010

Decode

TAF

TAF TAF LFBH 130500Z 1306/1406 20015KT 9999 BKN020 OVC060 TEMPO 1306/1309 20020G35KT 2500 RA BKN004 OVC015 BECMG 1308/1309 26015G25KT PROB30 TEMPO 1312/1406 25025G45KT TEMPO 1312/1318 2500 RA OVC010 TEMPO 1318/1323 4500 -SHRA TEMPO 1400/1406 3500 -RA BKN008 OVC013

Decode

Departure Runways

ID Width Length Bearing (true) Bearing (mag) Surface Threshold Offset Overrun Length
10 148 ft / 45 m 7,383 ft / 2,250 m 92.43° 92.73° Asphalt 1,033 ft / 315 m 0 ft / 0 m
28 148 ft / 45 m 7,383 ft / 2,250 m 272.45° 272.75° Asphalt 1,532 ft / 467 m 0 ft / 0 m

LFRS

Details ICAO LFRS (NTE)
Name Nantes_Atlantique
Region France
Timezone Europe/Paris (UTC+1.0)
Stats Elevation 89 ft / 27 m (AMSL)
Location 47.156040° -1.611186°
Runways 2
Magnetic Variation 0.511° W

METAR

LFRS 131100Z AUTO 23010KT 200V260 9999 FEW047 BKN056 OVC068 11/09 Q1010 TEMPO BKN015TCU BKN040 BECMG 27025G35KT 3000 RA

Decode

TAF

TAF AMD LFRS 130628Z 1306/1412 25012KT 9999 SCT020 BKN045 TEMPO 1309/1312 5000 SHRA BKN015TCU BKN040 BECMG 1312/1314 27025G35KT 3000 RA BKN005 OVC015 BECMG 1317/1319 27015G25KT 8000 NSW BKN015 BKN040 TEMPO 1323/1405 27018G30KT TEMPO 1409/1412 26018G30KT SHRA BKN020TCU

Decode

Destination Runways

ID Width Length Bearing (true) Bearing (mag) Surface Threshold Offset Overrun Length
03 148 ft / 45 m 9,526 ft / 2,903 m 27.35° 27.86° Asphalt 0 ft / 0 m 0 ft / 0 m
13 100 ft / 30 m 1,999 ft / 609 m 125.55° 126.06° Concrete 0 ft / 0 m 0 ft / 0 m
21 148 ft / 45 m 9,526 ft / 2,903 m 207.37° 207.88° Asphalt 689 ft / 210 m 0 ft / 0 m
31 100 ft / 30 m 1,999 ft / 609 m 305.56° 306.07° Concrete 0 ft / 0 m 0 ft / 0 m

Approach Navaids

Runway Type Ident Frequency Range Bearing (true) Bearing (mag) Slope Elevation
03 Localiser NT 109.90 MHz 27 nm / 50 km 27.42° 27.93° - 89 ft / 27 m (AMSL)
03 Glidescope NT 109.90 MHz 27 nm / 50 km 27.42° 27.93° 3.00° 89 ft / 27 m (AMSL)
03 DME NT 109.90 MHz 27 nm / 50 km - - - 89 ft / 27 m (AMSL)

Popular Alternatives